KLM68B EGPF-EHAM
Flight info
| Callsign | KLM68B |
|---|---|
| Flight time | 1h 11m |
| Altitude | 37000 |
| Route | NORBO Y96 HAVEN DCT ERKIT N110 DOLAS L603 LAMSO |
| Aircraft | B738/M-SDE2E3FGIJ1RWYZ/LB1 |
Departure
| Time | 2026-05-05 16:03 |
|---|---|
| Airport | Glasgow Airport (EGPF) |
Arrival
| Time | 2026-05-05 17:14 |
|---|---|
| Airport | Amsterdam Airport Schiphol (EHAM) |
| Time | Latitude | Longitude | Altitude | Speed | Heading |
|---|---|---|---|---|---|
| 2026-05-05 15:59 | 55.86700 | -4.43610 | 28 ft | 14 kts | 343° |
| 2026-05-05 15:59 | 55.86731 | -4.43745 | 28 ft | 13 kts | 247° |
| 2026-05-05 16:00 | 55.86673 | -4.43871 | 28 ft | 13 kts | 227° |
| 2026-05-05 16:00 | 55.86604 | -4.43998 | 28 ft | 15 kts | 226° |
| 2026-05-05 16:00 | 55.86524 | -4.44149 | 28 ft | 18 kts | 226° |
| 2026-05-05 16:00 | 55.86431 | -4.44321 | 28 ft | 20 kts | 226° |
| 2026-05-05 16:01 | 55.86337 | -4.44497 | 28 ft | 19 kts | 226° |
| 2026-05-05 16:01 | 55.86260 | -4.44644 | 28 ft | 11 kts | 233° |
| 2026-05-05 16:01 | 55.86280 | -4.44761 | 28 ft | 11 kts | 316° |
| 2026-05-05 16:01 | 55.86334 | -4.44850 | 28 ft | 10 kts | 321° |
| 2026-05-05 16:02 | 55.86396 | -4.44819 | 28 ft | 11 kts | 43° |
| 2026-05-05 16:02 | 55.86543 | -4.44545 | 28 ft | 61 kts | 46° |
| 2026-05-05 16:02 | 55.86970 | -4.43751 | 28 ft | 115 kts | 46° |
| 2026-05-05 16:02 | 55.87619 | -4.42529 | 88 ft | 150 kts | 49° |
| 2026-05-05 16:03 | 55.88353 | -4.41113 | 408 ft | 162 kts | 50° |
| 2026-05-05 16:03 | 55.89135 | -4.39595 | 898 ft | 165 kts | 50° |
| 2026-05-05 16:03 | 55.89922 | -4.38137 | 1459 ft | 169 kts | 50° |
| 2026-05-05 16:03 | 55.90794 | -4.36537 | 1659 ft | 191 kts | 49° |
| 2026-05-05 16:04 | 55.91769 | -4.34739 | 1831 ft | 213 kts | 49° |
| 2026-05-05 16:04 | 55.92865 | -4.32880 | 2466 ft | 215 kts | 38° |
| 2026-05-05 16:04 | 55.94225 | -4.31816 | 3327 ft | 219 kts | 14° |
| 2026-05-05 16:04 | 55.95765 | -4.31800 | 3981 ft | 226 kts | 349° |
| 2026-05-05 16:05 | 55.97200 | -4.33000 | 4533 ft | 236 kts | 323° |
| 2026-05-05 16:05 | 55.98244 | -4.35426 | 4793 ft | 259 kts | 292° |
| 2026-05-05 16:05 | 55.98459 | -4.38645 | 5407 ft | 267 kts | 261° |
| 2026-05-05 16:05 | 55.97834 | -4.41716 | 5993 ft | 269 kts | 246° |
| 2026-05-05 16:06 | 55.97022 | -4.44725 | 6063 ft | 268 kts | 246° |
| 2026-05-05 16:06 | 55.96216 | -4.47749 | 6207 ft | 271 kts | 246° |
| 2026-05-05 16:06 | 55.95349 | -4.50743 | 6926 ft | 271 kts | 236° |
| 2026-05-05 16:06 | 55.94063 | -4.53207 | 7683 ft | 272 kts | 226° |
| 2026-05-05 16:07 | 55.92685 | -4.55592 | 8268 ft | 279 kts | 227° |
| 2026-05-05 16:07 | 55.91317 | -4.58001 | 9011 ft | 280 kts | 227° |
| 2026-05-05 16:07 | 55.89940 | -4.60459 | 9835 ft | 280 kts | 228° |
| 2026-05-05 16:07 | 55.88551 | -4.62956 | 10431 ft | 288 kts | 228° |
| 2026-05-05 16:08 | 55.87083 | -4.65602 | 10591 ft | 311 kts | 228° |
| 2026-05-05 16:08 | 55.85417 | -4.68278 | 10773 ft | 334 kts | 217° |
| 2026-05-05 16:08 | 55.83416 | -4.70535 | 11208 ft | 345 kts | 215° |
| 2026-05-05 16:08 | 55.81366 | -4.72807 | 11888 ft | 348 kts | 215° |
| 2026-05-05 16:09 | 55.79229 | -4.74749 | 12551 ft | 356 kts | 200° |
| 2026-05-05 16:09 | 55.76744 | -4.75319 | 13285 ft | 364 kts | 185° |
| 2026-05-05 16:09 | 55.74193 | -4.75410 | 13977 ft | 368 kts | 184° |
| 2026-05-05 16:09 | 55.71615 | -4.75503 | 14605 ft | 371 kts | 185° |
| 2026-05-05 16:10 | 55.69040 | -4.75633 | 15206 ft | 375 kts | 185° |
| 2026-05-05 16:10 | 55.66414 | -4.75737 | 15884 ft | 379 kts | 180° |
| 2026-05-05 16:10 | 55.63804 | -4.74727 | 16516 ft | 390 kts | 159° |
| 2026-05-05 16:10 | 55.61483 | -4.72133 | 17189 ft | 398 kts | 139° |
| 2026-05-05 16:11 | 55.59777 | -4.68329 | 17815 ft | 405 kts | 120° |
| 2026-05-05 16:11 | 55.58041 | -4.53709 | 19528 ft | 415 kts | 95° |
| 2026-05-05 16:12 | 55.57747 | -4.48604 | 20104 ft | 418 kts | 95° |
| 2026-05-05 16:12 | 55.57134 | -4.38364 | 21199 ft | 425 kts | 96° |
| 2026-05-05 16:13 | 55.56105 | -4.22601 | 22829 ft | 435 kts | 97° |
| 2026-05-05 16:13 | 55.55867 | -4.19079 | 23215 ft | 436 kts | 97° |
| 2026-05-05 16:13 | 55.55504 | -4.13737 | 23722 ft | 440 kts | 97° |
| 2026-05-05 16:14 | 55.54761 | -4.02929 | 24631 ft | 444 kts | 97° |
| 2026-05-05 16:14 | 55.54000 | -3.92001 | 25475 ft | 451 kts | 97° |
| 2026-05-05 16:15 | 55.53223 | -3.80961 | 26316 ft | 456 kts | 97° |
| 2026-05-05 16:15 | 55.52429 | -3.69841 | 27152 ft | 461 kts | 98° |
| 2026-05-05 16:16 | 55.51613 | -3.58551 | 27932 ft | 466 kts | 98° |
| 2026-05-05 16:16 | 55.50777 | -3.47127 | 28701 ft | 472 kts | 98° |
| 2026-05-05 16:17 | 55.49922 | -3.35591 | 29423 ft | 477 kts | 98° |
| 2026-05-05 16:17 | 55.49425 | -3.29859 | 29746 ft | 479 kts | 101° |
| 2026-05-05 16:18 | 55.48116 | -3.18233 | 30371 ft | 483 kts | 102° |
| 2026-05-05 16:18 | 55.47475 | -3.12450 | 31021 ft | 476 kts | 102° |
| 2026-05-05 16:18 | 55.45691 | -3.01328 | 31753 ft | 472 kts | 119° |
| 2026-05-05 16:19 | 55.43961 | -2.96501 | 32009 ft | 471 kts | 131° |
| 2026-05-05 16:19 | 55.41729 | -2.92335 | 32354 ft | 466 kts | 141° |
| 2026-05-05 16:19 | 55.36874 | -2.84836 | 33166 ft | 463 kts | 141° |
| 2026-05-05 16:20 | 55.32032 | -2.77351 | 33815 ft | 463 kts | 141° |
| 2026-05-05 16:20 | 55.27238 | -2.69865 | 34405 ft | 463 kts | 141° |
| 2026-05-05 16:21 | 55.22426 | -2.62330 | 34894 ft | 463 kts | 141° |
| 2026-05-05 16:22 | 55.15242 | -2.51115 | 35720 ft | 461 kts | 141° |
| 2026-05-05 16:22 | 55.10460 | -2.43688 | 36054 ft | 464 kts | 141° |
| 2026-05-05 16:23 | 55.05626 | -2.36204 | 36045 ft | 462 kts | 141° |
| 2026-05-05 16:23 | 54.98441 | -2.25124 | 36033 ft | 458 kts | 141° |
| 2026-05-05 16:24 | 54.93672 | -2.17803 | 36045 ft | 456 kts | 141° |
| 2026-05-05 16:25 | 54.86561 | -2.06932 | 36062 ft | 455 kts | 142° |
| 2026-05-05 16:25 | 54.79410 | -1.96053 | 36058 ft | 456 kts | 142° |
| 2026-05-05 16:26 | 54.69854 | -1.81597 | 36058 ft | 458 kts | 142° |
| 2026-05-05 16:27 | 54.65042 | -1.74353 | 36066 ft | 459 kts | 142° |
| 2026-05-05 16:27 | 54.60210 | -1.67102 | 36070 ft | 460 kts | 142° |
| 2026-05-05 16:28 | 54.55361 | -1.59849 | 36067 ft | 461 kts | 142° |
| 2026-05-05 16:28 | 54.50531 | -1.52648 | 36078 ft | 461 kts | 142° |
| 2026-05-05 16:29 | 54.45676 | -1.45435 | 36075 ft | 460 kts | 141° |
| 2026-05-05 16:29 | 54.40850 | -1.38285 | 36071 ft | 460 kts | 141° |
| 2026-05-05 16:30 | 54.35997 | -1.31120 | 36049 ft | 459 kts | 142° |
| 2026-05-05 16:30 | 54.31171 | -1.24018 | 36046 ft | 458 kts | 142° |
| 2026-05-05 16:31 | 54.26325 | -1.16909 | 36045 ft | 458 kts | 142° |
| 2026-05-05 16:31 | 54.21479 | -1.09823 | 36046 ft | 457 kts | 141° |
| 2026-05-05 16:32 | 54.16679 | -1.02825 | 36034 ft | 456 kts | 142° |
| 2026-05-05 16:32 | 54.11857 | -0.95819 | 36021 ft | 455 kts | 142° |
| 2026-05-05 16:33 | 54.07041 | -0.88839 | 36029 ft | 454 kts | 142° |
| 2026-05-05 16:33 | 54.02195 | -0.81922 | 36021 ft | 453 kts | 144° |
| 2026-05-05 16:34 | 53.97089 | -0.75818 | 36029 ft | 451 kts | 148° |
| 2026-05-05 16:34 | 53.91873 | -0.69876 | 36020 ft | 451 kts | 147° |
| 2026-05-05 16:35 | 53.86674 | -0.63867 | 36021 ft | 451 kts | 147° |
| 2026-05-05 16:35 | 53.81539 | -0.57881 | 36020 ft | 450 kts | 147° |
| 2026-05-05 16:36 | 53.76366 | -0.51863 | 36019 ft | 450 kts | 147° |
| 2026-05-05 16:36 | 53.71195 | -0.45869 | 36020 ft | 450 kts | 147° |
| 2026-05-05 16:37 | 53.66023 | -0.39918 | 36023 ft | 450 kts | 147° |
| 2026-05-05 16:37 | 53.60868 | -0.34021 | 36018 ft | 450 kts | 147° |
| 2026-05-05 16:38 | 53.56125 | -0.27162 | 36017 ft | 452 kts | 130° |
| 2026-05-05 16:38 | 53.52344 | -0.18700 | 36017 ft | 452 kts | 127° |
| 2026-05-05 16:39 | 53.48604 | -0.10185 | 36017 ft | 453 kts | 128° |
| 2026-05-05 16:39 | 53.44863 | -0.01812 | 36015 ft | 453 kts | 128° |
| 2026-05-05 16:40 | 53.41048 | 0.06631 | 36012 ft | 453 kts | 129° |
| 2026-05-05 16:40 | 53.37228 | 0.15049 | 35999 ft | 453 kts | 129° |
| 2026-05-05 16:41 | 53.33428 | 0.23396 | 35997 ft | 453 kts | 129° |
| 2026-05-05 16:41 | 53.29596 | 0.31790 | 35995 ft | 452 kts | 129° |
| 2026-05-05 16:42 | 53.25778 | 0.40132 | 36000 ft | 451 kts | 129° |
| 2026-05-05 16:42 | 53.21972 | 0.48405 | 35989 ft | 451 kts | 129° |
| 2026-05-05 16:43 | 53.18129 | 0.56720 | 35989 ft | 450 kts | 130° |
| 2026-05-05 16:43 | 53.14298 | 0.64988 | 35986 ft | 450 kts | 130° |
| 2026-05-05 16:44 | 53.10487 | 0.73189 | 35989 ft | 450 kts | 130° |
| 2026-05-05 16:44 | 53.06633 | 0.81459 | 35983 ft | 451 kts | 130° |
| 2026-05-05 16:45 | 53.02780 | 0.89703 | 35976 ft | 451 kts | 130° |
| 2026-05-05 16:45 | 52.99092 | 0.98085 | 35961 ft | 454 kts | 121° |
| 2026-05-05 16:46 | 52.96862 | 1.07909 | 35965 ft | 459 kts | 104° |
| 2026-05-05 16:46 | 52.95685 | 1.18357 | 35969 ft | 460 kts | 102° |
| 2026-05-05 16:47 | 52.94535 | 1.28811 | 35970 ft | 460 kts | 103° |
| 2026-05-05 16:47 | 52.93344 | 1.39171 | 35971 ft | 461 kts | 103° |
| 2026-05-05 16:48 | 52.92109 | 1.49615 | 35968 ft | 461 kts | 103° |
| 2026-05-05 16:48 | 52.90860 | 1.60044 | 35965 ft | 461 kts | 104° |
| 2026-05-05 16:49 | 52.89609 | 1.70411 | 35961 ft | 461 kts | 104° |
| 2026-05-05 16:49 | 52.88976 | 1.75635 | 35845 ft | 464 kts | 104° |
| 2026-05-05 16:49 | 52.88329 | 1.80945 | 35134 ft | 472 kts | 104° |
| 2026-05-05 16:50 | 52.87679 | 1.86266 | 34412 ft | 471 kts | 104° |
| 2026-05-05 16:50 | 52.87034 | 1.91527 | 33576 ft | 472 kts | 104° |
| 2026-05-05 16:50 | 52.86380 | 1.96853 | 32935 ft | 467 kts | 104° |
| 2026-05-05 16:50 | 52.85735 | 2.02087 | 32317 ft | 461 kts | 105° |
| 2026-05-05 16:51 | 52.85093 | 2.07277 | 31779 ft | 455 kts | 104° |
| 2026-05-05 16:51 | 52.84460 | 2.12364 | 31213 ft | 450 kts | 105° |
| 2026-05-05 16:51 | 52.83829 | 2.17413 | 30668 ft | 445 kts | 105° |
| 2026-05-05 16:51 | 52.83203 | 2.22399 | 30132 ft | 441 kts | 105° |
| 2026-05-05 16:52 | 52.82589 | 2.27282 | 29555 ft | 436 kts | 105° |
| 2026-05-05 16:52 | 52.81972 | 2.32162 | 28972 ft | 431 kts | 105° |
| 2026-05-05 16:52 | 52.81361 | 2.36980 | 28442 ft | 426 kts | 105° |
| 2026-05-05 16:52 | 52.80754 | 2.41756 | 27897 ft | 421 kts | 104° |
| 2026-05-05 16:53 | 52.80153 | 2.46472 | 27364 ft | 417 kts | 104° |
| 2026-05-05 16:53 | 52.79553 | 2.51154 | 26832 ft | 414 kts | 104° |
| 2026-05-05 16:53 | 52.78956 | 2.55782 | 26325 ft | 410 kts | 104° |
| 2026-05-05 16:53 | 52.78361 | 2.60367 | 25812 ft | 407 kts | 104° |
| 2026-05-05 16:54 | 52.77777 | 2.64866 | 25308 ft | 404 kts | 104° |
| 2026-05-05 16:54 | 52.77188 | 2.69386 | 24805 ft | 401 kts | 104° |
| 2026-05-05 16:54 | 52.76604 | 2.73867 | 24305 ft | 399 kts | 104° |
| 2026-05-05 16:54 | 52.76017 | 2.78347 | 23782 ft | 398 kts | 104° |
| 2026-05-05 16:55 | 52.75435 | 2.82808 | 23174 ft | 398 kts | 103° |
| 2026-05-05 16:55 | 52.74863 | 2.87266 | 22593 ft | 396 kts | 103° |
| 2026-05-05 16:55 | 52.74296 | 2.91691 | 22068 ft | 393 kts | 103° |
| 2026-05-05 16:55 | 52.73729 | 2.96091 | 21556 ft | 390 kts | 103° |
| 2026-05-05 16:56 | 52.73034 | 3.00382 | 21027 ft | 385 kts | 116° |
| 2026-05-05 16:56 | 52.71736 | 3.04213 | 20584 ft | 379 kts | 123° |
| 2026-05-05 16:56 | 52.70383 | 3.07939 | 20085 ft | 377 kts | 122° |
| 2026-05-05 16:56 | 52.69063 | 3.11601 | 19609 ft | 375 kts | 122° |
| 2026-05-05 16:57 | 52.67745 | 3.15292 | 19129 ft | 373 kts | 121° |
| 2026-05-05 16:57 | 52.66441 | 3.18971 | 18648 ft | 371 kts | 122° |
| 2026-05-05 16:57 | 52.65145 | 3.22645 | 18136 ft | 371 kts | 122° |
| 2026-05-05 16:57 | 52.63853 | 3.26311 | 17592 ft | 369 kts | 122° |
| 2026-05-05 16:58 | 52.62561 | 3.29976 | 17086 ft | 367 kts | 122° |
| 2026-05-05 16:58 | 52.61282 | 3.33598 | 16594 ft | 365 kts | 121° |
| 2026-05-05 16:58 | 52.60003 | 3.37209 | 16114 ft | 363 kts | 122° |
| 2026-05-05 16:58 | 52.58751 | 3.40823 | 15619 ft | 362 kts | 117° |
| 2026-05-05 16:59 | 52.58046 | 3.44735 | 15136 ft | 363 kts | 100° |
| 2026-05-05 16:59 | 52.57653 | 3.48822 | 14671 ft | 362 kts | 99° |
| 2026-05-05 16:59 | 52.57251 | 3.52908 | 14196 ft | 361 kts | 100° |
| 2026-05-05 16:59 | 52.56840 | 3.56980 | 13689 ft | 361 kts | 100° |
| 2026-05-05 17:00 | 52.56419 | 3.61035 | 13160 ft | 360 kts | 100° |
| 2026-05-05 17:00 | 52.55991 | 3.65077 | 12665 ft | 358 kts | 100° |
| 2026-05-05 17:00 | 52.55705 | 3.67752 | 12339 ft | 357 kts | 100° |
| 2026-05-05 17:00 | 52.55273 | 3.71766 | 11847 ft | 355 kts | 100° |
| 2026-05-05 17:01 | 52.54842 | 3.75754 | 11385 ft | 354 kts | 100° |
| 2026-05-05 17:01 | 52.54410 | 3.79729 | 10902 ft | 352 kts | 100° |
| 2026-05-05 17:01 | 52.53982 | 3.83667 | 10437 ft | 347 kts | 99° |
| 2026-05-05 17:01 | 52.53570 | 3.87442 | 10274 ft | 331 kts | 99° |
| 2026-05-05 17:02 | 52.53171 | 3.91085 | 10105 ft | 318 kts | 99° |
| 2026-05-05 17:02 | 52.52785 | 3.94602 | 9972 ft | 307 kts | 99° |
| 2026-05-05 17:02 | 52.52462 | 3.98036 | 9639 ft | 303 kts | 91° |
| 2026-05-05 17:02 | 52.52192 | 4.01427 | 9302 ft | 299 kts | 109° |
| 2026-05-05 17:03 | 52.51114 | 4.04264 | 9074 ft | 292 kts | 136° |
| 2026-05-05 17:03 | 52.49523 | 4.06291 | 8808 ft | 287 kts | 146° |
| 2026-05-05 17:03 | 52.47863 | 4.08103 | 8438 ft | 286 kts | 147° |
| 2026-05-05 17:03 | 52.46194 | 4.09883 | 8084 ft | 285 kts | 147° |
| 2026-05-05 17:04 | 52.44556 | 4.11615 | 7739 ft | 284 kts | 147° |
| 2026-05-05 17:04 | 52.42893 | 4.13364 | 7383 ft | 283 kts | 147° |
| 2026-05-05 17:04 | 52.41245 | 4.15091 | 7088 ft | 280 kts | 147° |
| 2026-05-05 17:04 | 52.39593 | 4.16814 | 6712 ft | 281 kts | 147° |
| 2026-05-05 17:05 | 52.37946 | 4.18530 | 6421 ft | 278 kts | 147° |
| 2026-05-05 17:05 | 52.36320 | 4.20220 | 6078 ft | 277 kts | 147° |
| 2026-05-05 17:05 | 52.34717 | 4.21877 | 5766 ft | 274 kts | 147° |
| 2026-05-05 17:05 | 52.33084 | 4.23530 | 5350 ft | 276 kts | 147° |
| 2026-05-05 17:06 | 52.31443 | 4.25160 | 5024 ft | 275 kts | 147° |
| 2026-05-05 17:06 | 52.29787 | 4.26735 | 4631 ft | 277 kts | 146° |
| 2026-05-05 17:06 | 52.28095 | 4.28273 | 4280 ft | 277 kts | 147° |
| 2026-05-05 17:06 | 52.26438 | 4.29763 | 4000 ft | 273 kts | 147° |
| 2026-05-05 17:07 | 52.24777 | 4.31247 | 3671 ft | 271 kts | 147° |
| 2026-05-05 17:07 | 52.23177 | 4.32857 | 3343 ft | 266 kts | 135° |
| 2026-05-05 17:07 | 52.21857 | 4.34847 | 3277 ft | 253 kts | 132° |
| 2026-05-05 17:07 | 52.20599 | 4.36763 | 3191 ft | 242 kts | 132° |
| 2026-05-05 17:08 | 52.19450 | 4.38678 | 3080 ft | 230 kts | 118° |
| 2026-05-05 17:08 | 52.18926 | 4.41034 | 2836 ft | 218 kts | 95° |
| 2026-05-05 17:08 | 52.18720 | 4.43443 | 2704 ft | 210 kts | 93° |
| 2026-05-05 17:08 | 52.18560 | 4.45782 | 2569 ft | 205 kts | 86° |
| 2026-05-05 17:09 | 52.18951 | 4.47882 | 2472 ft | 191 kts | 49° |
| 2026-05-05 17:09 | 52.19754 | 4.49527 | 2404 ft | 181 kts | 58° |
| 2026-05-05 17:09 | 52.20307 | 4.51278 | 2360 ft | 168 kts | 56° |
| 2026-05-05 17:09 | 52.20924 | 4.52875 | 2309 ft | 165 kts | 55° |
| 2026-05-05 17:10 | 52.21538 | 4.54433 | 2293 ft | 163 kts | 55° |
| 2026-05-05 17:10 | 52.22144 | 4.55995 | 2197 ft | 167 kts | 55° |
| 2026-05-05 17:10 | 52.22749 | 4.57591 | 2113 ft | 162 kts | 56° |
| 2026-05-05 17:10 | 52.23316 | 4.59101 | 2027 ft | 147 kts | 55° |
| 2026-05-05 17:11 | 52.23847 | 4.60491 | 1839 ft | 140 kts | 54° |
| 2026-05-05 17:11 | 52.24364 | 4.61837 | 1661 ft | 142 kts | 54° |
| 2026-05-05 17:11 | 52.24892 | 4.63213 | 1531 ft | 143 kts | 54° |
| 2026-05-05 17:11 | 52.25414 | 4.64594 | 1320 ft | 147 kts | 54° |
| 2026-05-05 17:12 | 52.25945 | 4.65981 | 1162 ft | 143 kts | 54° |
| 2026-05-05 17:12 | 52.26465 | 4.67337 | 949 ft | 135 kts | 53° |
| 2026-05-05 17:12 | 52.26964 | 4.68636 | 675 ft | 133 kts | 53° |
| 2026-05-05 17:12 | 52.27442 | 4.69886 | 572 ft | 135 kts | 55° |
| 2026-05-05 17:13 | 52.27941 | 4.71193 | 432 ft | 136 kts | 55° |
| 2026-05-05 17:13 | 52.28455 | 4.72532 | 225 ft | 142 kts | 55° |
| 2026-05-05 17:13 | 52.28972 | 4.73883 | 40 ft | 136 kts | 54° |
| 2026-05-05 17:13 | 52.29427 | 4.75067 | -3 ft | 99 kts | 58° |
| 2026-05-05 17:14 | 52.29692 | 4.75757 | -3 ft | 55 kts | 58° |
| 2026-05-05 17:14 | 52.29879 | 4.76243 | -4 ft | 47 kts | 58° |
| 2026-05-05 17:14 | 52.29994 | 4.76500 | -3 ft | 21 kts | 40° |
| 2026-05-05 17:14 | 52.30116 | 4.76615 | -2 ft | 20 kts | 28° |
| 2026-05-05 17:15 | 52.30229 | 4.76711 | -2 ft | 18 kts | 27° |
| 2026-05-05 17:15 | 52.30309 | 4.76817 | -2 ft | 15 kts | 56° |
| 2026-05-05 17:15 | 52.30363 | 4.76954 | -2 ft | 14 kts | 58° |
| 2026-05-05 17:15 | 52.30413 | 4.77083 | -2 ft | 13 kts | 58° |
| 2026-05-05 17:16 | 52.30460 | 4.77209 | -2 ft | 13 kts | 58° |
| 2026-05-05 17:16 | 52.30512 | 4.77325 | -2 ft | 13 kts | 33° |
| 2026-05-05 17:16 | 52.30591 | 4.77294 | -2 ft | 12 kts | 329° |
| 2026-05-05 17:16 | 52.30646 | 4.77197 | -2 ft | 12 kts | 281° |
| 2026-05-05 17:17 | 52.30651 | 4.77063 | -2 ft | 12 kts | 273° |
| 2026-05-05 17:17 | 52.30656 | 4.76934 | -2 ft | 11 kts | 273° |
| 2026-05-05 17:17 | 52.30696 | 4.76833 | -2 ft | 11 kts | 322° |
| 2026-05-05 17:17 | 52.30728 | 4.76731 | -2 ft | 10 kts | 288° |
| 2026-05-05 17:18 | 52.30754 | 4.76648 | -2 ft | 7 kts | 340° |
| 2026-05-05 17:18 | 52.30799 | 4.76634 | -2 ft | 4 kts | 347° |
| 2026-05-05 17:18 | 52.30805 | 4.76631 | -2 ft | 0 kts | 346° |